createdAt,value
2018-12-13T18:53:29.545Z,19.73
2018-12-13T18:54:29.528Z,19.72
2018-12-13T18:55:36.580Z,19.78
2018-12-13T18:56:36.574Z,19.73
2018-12-13T18:57:36.565Z,19.75
2018-12-13T18:58:36.561Z,19.72
2018-12-13T18:59:36.541Z,19.84
2018-12-13T19:00:36.537Z,19.79
2018-12-13T19:01:36.536Z,19.84
2018-12-13T19:02:36.526Z,19.80
2018-12-13T19:03:36.522Z,19.80
2018-12-13T19:04:36.515Z,19.84
2018-12-13T19:05:36.499Z,19.78
2018-12-13T19:06:36.496Z,19.87
2018-12-13T19:07:36.483Z,19.83
2018-12-13T19:08:36.476Z,19.80
2018-12-13T19:09:36.474Z,19.80
2018-12-13T19:10:41.762Z,19.79
2018-12-13T19:11:36.474Z,19.83
2018-12-13T19:12:36.455Z,19.87
2018-12-13T19:13:36.440Z,19.87
2018-12-13T19:14:36.433Z,19.83
2018-12-13T19:15:36.434Z,19.87
2018-12-13T19:16:36.427Z,19.86
2018-12-13T19:17:36.411Z,19.05
2018-12-13T19:18:36.409Z,16.31
2018-12-13T19:19:36.394Z,15.94
2018-12-13T19:20:36.389Z,15.06
2018-12-13T19:21:36.392Z,14.88
2018-12-13T19:22:36.384Z,16.52
2018-12-13T19:23:36.394Z,17.55
2018-12-13T19:24:36.366Z,18.18
2018-12-13T19:25:36.348Z,18.49
2018-12-13T19:26:36.343Z,18.83
2018-12-13T19:27:36.334Z,18.94
2018-12-13T19:28:36.325Z,18.98
2018-12-13T19:29:36.330Z,19.10
2018-12-13T19:30:36.323Z,19.15
2018-12-13T19:31:36.308Z,19.18
2018-12-13T19:32:36.295Z,19.28
2018-12-13T19:33:36.294Z,19.25
2018-12-13T19:34:36.283Z,19.33
2018-12-13T19:35:36.278Z,19.24
2018-12-13T19:36:36.282Z,19.29
2018-12-13T19:37:36.256Z,19.29
2018-12-13T19:38:36.248Z,19.36
2018-12-13T19:39:36.242Z,19.43
2018-12-13T19:40:36.234Z,19.39
2018-12-13T19:41:36.234Z,19.43
2018-12-13T19:42:36.927Z,19.51
2018-12-13T19:43:36.224Z,19.58
2018-12-13T19:44:36.224Z,19.46
2018-12-13T19:45:36.200Z,19.61
2018-12-13T19:46:36.192Z,19.36
2018-12-13T19:47:36.190Z,19.53
2018-12-13T19:48:36.184Z,19.55
2018-12-13T19:49:36.171Z,19.54
2018-12-13T19:50:36.815Z,19.54
2018-12-13T19:51:36.187Z,19.53
2018-12-13T19:52:36.149Z,19.55
2018-12-13T19:53:36.145Z,19.58
2018-12-13T19:54:36.333Z,19.66
2018-12-13T19:55:36.132Z,19.63
2018-12-13T19:56:36.124Z,19.58
2018-12-13T19:57:36.108Z,19.58
2018-12-13T19:58:36.105Z,19.60
2018-12-13T19:59:36.099Z,19.60
2018-12-13T20:00:36.088Z,19.53
2018-12-13T20:01:36.088Z,19.53
2018-12-13T20:02:36.077Z,19.50
2018-12-13T20:03:36.065Z,19.55
2018-12-13T20:04:36.060Z,19.51
2018-12-13T20:05:36.059Z,19.54
2018-12-13T20:06:36.053Z,19.61
2018-12-13T20:07:36.046Z,19.58
2018-12-13T20:08:36.036Z,19.58
2018-12-13T20:09:36.022Z,19.61
2018-12-13T20:10:36.018Z,19.66
2018-12-13T20:11:36.012Z,19.63
2018-12-13T20:12:36.007Z,19.63
2018-12-13T20:13:36.002Z,19.63
2018-12-13T20:14:36.143Z,19.58
2018-12-13T20:15:35.990Z,19.66
2018-12-13T20:16:35.988Z,19.53
2018-12-13T20:17:35.971Z,19.63
2018-12-13T20:18:35.965Z,19.61
2018-12-13T20:19:35.963Z,19.66
2018-12-13T20:20:35.954Z,19.72
2018-12-13T20:21:35.945Z,19.63
2018-12-13T20:22:35.938Z,19.68
2018-12-13T20:23:35.930Z,19.66
2018-12-13T20:24:35.924Z,19.68
2018-12-13T20:25:35.927Z,19.68
2018-12-13T20:26:35.916Z,19.70
2018-12-13T20:27:35.913Z,19.76
2018-12-13T20:28:35.910Z,19.70
2018-12-13T20:29:35.903Z,19.68
2018-12-13T20:30:35.891Z,19.61
2018-12-13T20:31:35.877Z,19.60
2018-12-13T20:32:35.875Z,19.58
2018-12-13T20:33:36.654Z,19.63
